Aviation Digital Data Service (ADDS)

Output produced by METARs form (1734 UTC 27 May 2017)
found at http://www.aviationweather.gov/adds/metars/
 
KTCC 271722Z 2718/2818 26011KT P6SM SCT250 
     FM271900 26011G21KT P6SM SCT250 
     FM280200 35016G26KT P6SM FEW250 
     FM280400 03025G35KT P6SM BKN040 
     FM280800 03015G25KT P6SM SCT040 
     FM281100 03010KT P6SM FEW040
       
KTCL 271720Z 2718/2818 22010G18KT P6SM VCTS BKN040CB BKN080 
     FM272300 21005KT P6SM BKN040 
     FM280800 21007KT P6SM BKN020
       
TAF KTCM 271301Z 2713/2819 VRB06KT 9999 FEW200 QNH3000INS TX28/2723Z TN08/2713Z
       
KTCS 271136Z 2712/2812 31007KT P6SM FEW250 
     FM271500 VRB05KT P6SM FEW250 
     FM272000 22015G22KT P6SM FEW250 
     FM280600 30007KT P6SM SCT250
       
KTEB 271437Z 2715/2812 VRB04KT P6SM BKN040 
     FM271600 26005KT P6SM BKN045 
     FM272100 16006KT P6SM BKN045 
     FM280100 VRB04KT P6SM BKN035 
     FM280900 VRB04KT P6SM SCT020 BKN035 
     TEMPO 2809/2812 BKN020
       
KTEX 271132Z 2712/2812 13005KT P6SM FEW070 SCT140 
     FM271800 28009KT P6SM VCSH BKN070 
     FM271930 28010G18KT P6SM VCTS SCT080CB 
     FM280000 31008KT P6SM SCT100 
     FM280400 05005KT P6SM SKC
       
TAF KTIK 271700Z 2717/2823 18012G20KT 9999 BKN150 QNH2970INS 
     TEMPO 2717/2723 20015G25KT 
     BECMG 2723/2724 26012G18KT 9999 FEW130 QNH2970INS 
     BECMG 2804/2805 28012G20KT 8000 -SHRA VCTS BKN030CB QNH2972INS 
     BECMG 2808/2809 34015G25KT 9999 NSW BKN020 QNH2985INS 
     BECMG 2811/2812 36012KT 9999 SCT008 QNH2999INS TX35/2721Z TN16/2811Z
       
KTIX 271732Z 2718/2818 09008KT P6SM SKC 
     FM280300 22003KT P6SM SKC 
     FM281500 28007KT P6SM SKC
       
KTLH 271720Z 2718/2818 23006KT P6SM SKC 
     FM280900 27003KT 3SM BR SCT004 OVC007 
     FM281400 27007KT P6SM BKN020
       
KTMB 271502Z 2715/2812 VRB03KT P6SM FEW025 SCT060 
     FM271800 13008KT P6SM SCT040 SCT250 
     FM280000 VRB02KT P6SM SKC
       
KTOI 271720Z 2718/2818 23009KT P6SM SCT040 
     FM280700 22005KT P6SM BKN015 
     FM281600 24008KT P6SM BKN050
       
KTOL 271603Z 2716/2812 07008KT P6SM SCT045 SCT070 
     FM280800 09004KT 6SM BR BKN200
       
KTOP 271733Z 2718/2818 15010KT P6SM VCTS SCT060CB BKN250 
     FM272200 35008KT P6SM SCT080 
     FM280200 34009KT P6SM SCT025 
     FM280900 32008KT P6SM SCT120
       
KTPA 271725Z 2718/2818 27007KT P6SM SKC 
     FM272000 28010KT P6SM SKC 
     FM280200 28005KT P6SM FEW250 
     FM281500 28008KT P6SM SCT250
       
KTPH 271722Z 2718/2818 VRB06KT P6SM SKC
       
KTRI 271720Z 2718/2818 25010KT P6SM BKN050 
     FM280000 23005KT 3SM TSRA OVC020CB 
     FM280400 VRB03KT P6SM BKN050 
     FM281200 20003KT P6SM VCTS OVC025CB
       
KTRK 271720Z 2718/2818 VRB04KT P6SM SKC 
     FM271900 15007KT P6SM SKC 
     FM280100 VRB03KT P6SM SKC
       
KTRM 271720Z 2718/2818 VRB06KT P6SM SKC 
     FM280200 33010KT P6SM SKC 
     FM280900 VRB05KT P6SM SKC
       
KTTD 271724Z 2718/2818 09008KT P6SM SKC 
     FM280600 VRB03KT P6SM SKC
       
KTTN 271730Z 2718/2818 VRB04KT P6SM SCT035 BKN120 
     FM272100 VRB04KT P6SM BKN035 
     FM272300 VRB03KT P6SM BKN200 
     FM281400 09006KT P6SM BKN035
       
KTUL 271720Z 2718/2818 17014G21KT P6SM FEW030 BKN050 
     FM272300 18014G21KT P6SM OVC250 
     TEMPO 2723/2803 VRB30G50KT 1SM +TSRA BKN015CB 
     FM280400 23008KT P6SM OVC050 
     FM280600 34010KT P6SM OVC015
       
KTUP 271142Z 2712/2812 20005KT P6SM FEW040 BKN250 
     FM271400 22007KT P6SM OVC015 
     FM271600 24010G16KT P6SM BKN030 
     FM272000 25010G16KT P6SM BKN040 
     FM280000 21005KT P6SM SCT050 
     FM280600 21005KT P6SM VCTS BKN050CB 
     FM280900 28006KT P6SM VCSH OVC025
       
KTUS 271732Z 2718/2818 22004KT P6SM SKC 
     FM272100 30009G15KT P6SM SKC 
     FM280300 25006KT P6SM SKC 
     FM280800 17004KT P6SM SKC
       
KTVC 271120Z 2712/2812 00000KT P6SM SCT130 
     FM280600 15004KT P6SM BKN110
       
KTVL 271720Z 2718/2818 03007KT P6SM SKC 
     FM280200 VRB03KT P6SM SKC
       
KTWF 271733Z 2718/2818 VRB06KT P6SM SKC 
     FM280400 18006KT P6SM SKC
       
KTXK 271421Z 2714/2812 19010KT P6SM SCT025 OVC035 
     TEMPO 2714/2716 BKN010 OVC020 
     FM271900 19012G18KT P6SM OVC035 
     FM280100 17009KT P6SM OVC050 
     FM280700 17009KT P6SM VCTS OVC030CB
       
KTYR 271427Z 2714/2812 19012KT P6SM OVC015 
     TEMPO 2715/2717 SCT020 BKN040 
     FM271700 20013G20KT P6SM BKN050 
     FM280100 18012KT P6SM BKN040 
     FM280900 17011KT P6SM OVC025
       
KTYS 271720Z 2718/2818 24010KT P6SM BKN040 
     FM272200 23005KT 3SM TSRA OVC020CB 
     FM280100 VRB03KT P6SM BKN050 
     FM280900 20003KT P6SM VCTS OVC025CB